createdAt,value
2022-10-08T00:01:32.882Z,1.33
2022-10-08T00:04:00.536Z,1.27
2022-10-08T00:06:30.607Z,0.88
2022-10-08T00:09:01.798Z,0.90
2022-10-08T00:11:33.211Z,0.93
2022-10-08T00:14:02.228Z,1.10
2022-10-08T00:16:33.255Z,1.20
2022-10-08T00:19:04.796Z,0.90
2022-10-08T00:21:35.621Z,1.20
2022-10-08T00:24:05.858Z,1.20
2022-10-08T00:26:39.847Z,0.98
2022-10-08T00:29:12.793Z,1.00
2022-10-08T00:31:42.365Z,1.30
2022-10-08T00:34:15.871Z,1.00
2022-10-08T00:36:44.009Z,1.30
2022-10-08T00:39:14.758Z,1.13
2022-10-08T00:41:45.390Z,1.10
2022-10-08T00:44:47.901Z,1.60
2022-10-08T00:47:20.725Z,0.90
2022-10-08T00:49:51.422Z,0.90
2022-10-08T00:52:19.746Z,0.98
2022-10-08T00:54:49.560Z,1.02
2022-10-08T00:57:18.457Z,1.55
2022-10-08T00:59:45.905Z,1.60
2022-10-08T01:02:13.719Z,1.30
2022-10-08T01:04:43.145Z,1.50
2022-10-08T01:07:23.778Z,1.50
2022-10-08T01:10:25.427Z,1.60
2022-10-08T01:13:00.560Z,1.27
2022-10-08T01:15:44.607Z,1.17
2022-10-08T01:18:30.815Z,1.70
2022-10-08T01:21:18.528Z,1.27
2022-10-08T01:24:03.320Z,1.10
2022-10-08T01:26:39.940Z,1.65
2022-10-08T01:29:29.931Z,1.38
2022-10-08T01:32:04.382Z,1.30
2022-10-08T01:35:02.769Z,1.20
2022-10-08T01:37:34.517Z,1.50
2022-10-08T01:40:07.391Z,0.82
2022-10-08T01:42:39.968Z,1.10
2022-10-08T01:45:12.409Z,1.80
2022-10-08T01:47:44.115Z,1.23
2022-10-08T01:50:33.697Z,0.95
2022-10-08T01:53:09.670Z,1.90
2022-10-08T01:58:11.391Z,1.30
2022-10-08T02:00:40.920Z,1.13
2022-10-08T02:03:13.411Z,1.15
2022-10-08T02:05:48.397Z,1.00
2022-10-08T02:08:16.200Z,0.95
2022-10-08T02:10:43.977Z,1.25
2022-10-08T02:13:12.229Z,1.00
2022-10-08T02:16:03.676Z,1.52
2022-10-08T02:18:41.467Z,1.30
2022-10-08T02:21:28.634Z,0.85
2022-10-08T02:24:09.738Z,0.95
2022-10-08T02:26:54.714Z,0.90
2022-10-08T02:29:33.452Z,1.17
2022-10-08T02:32:29.018Z,1.55
2022-10-08T02:35:01.963Z,1.17
2022-10-08T02:37:37.579Z,1.50
2022-10-08T02:40:10.229Z,1.27
2022-10-08T02:42:56.150Z,1.92
2022-10-08T02:45:34.429Z,1.00
2022-10-08T02:48:08.479Z,1.20
2022-10-08T02:50:40.331Z,1.23
2022-10-08T02:53:14.533Z,1.38
2022-10-08T02:56:10.281Z,1.63
2022-10-08T02:58:38.105Z,1.48
2022-10-08T03:01:20.354Z,1.60
2022-10-08T03:03:55.119Z,1.60
2022-10-08T03:06:22.637Z,1.20
2022-10-08T03:08:51.043Z,1.40
2022-10-08T03:11:18.558Z,1.38
2022-10-08T03:13:48.466Z,1.90
2022-10-08T03:16:21.391Z,1.38
2022-10-08T03:18:52.199Z,1.40
2022-10-08T03:21:20.297Z,1.20
2022-10-08T03:23:47.917Z,1.10
2022-10-08T03:26:17.941Z,1.27
2022-10-08T03:28:45.888Z,1.65
2022-10-08T03:31:13.456Z,1.52
2022-10-08T03:33:40.989Z,1.10
2022-10-08T03:36:08.469Z,1.20
2022-10-08T03:38:35.994Z,1.40
2022-10-08T03:41:03.497Z,1.00
2022-10-08T03:43:32.940Z,1.08
2022-10-08T03:46:01.094Z,1.10
2022-10-08T03:48:29.255Z,0.88
2022-10-08T03:51:01.886Z,0.98
2022-10-08T03:53:33.087Z,1.30
2022-10-08T03:56:05.572Z,1.70
2022-10-08T03:58:33.532Z,0.90
2022-10-08T04:01:07.057Z,0.90
2022-10-08T04:03:35.137Z,0.80
2022-10-08T04:06:03.044Z,1.23
2022-10-08T04:08:30.771Z,1.42
2022-10-08T04:10:58.225Z,1.15
2022-10-08T04:13:25.690Z,1.13
2022-10-08T04:15:53.146Z,1.00
2022-10-08T04:18:20.729Z,1.27
2022-10-08T04:20:48.129Z,1.15
2022-10-08T04:23:15.602Z,1.08
2022-10-08T04:25:53.487Z,1.17
2022-10-08T04:28:22.480Z,0.80
2022-10-08T04:31:01.446Z,0.80
2022-10-08T04:33:30.900Z,1.27
2022-10-08T04:36:00.305Z,0.93
2022-10-08T04:38:28.846Z,1.10
2022-10-08T04:41:03.381Z,1.27
2022-10-08T04:43:31.059Z,0.93
2022-10-08T04:45:58.539Z,0.50
2022-10-08T04:48:26.146Z,1.00
2022-10-08T04:50:58.241Z,1.02
2022-10-08T04:53:25.880Z,1.20
2022-10-08T04:55:54.163Z,0.80
2022-10-08T04:58:23.361Z,1.67
2022-10-08T05:00:51.900Z,0.80
2022-10-08T05:03:19.372Z,1.17
2022-10-08T05:05:47.047Z,0.90
2022-10-08T05:08:14.657Z,1.25
2022-10-08T05:10:49.086Z,1.00
2022-10-08T05:13:16.714Z,1.17
2022-10-08T05:15:44.444Z,0.95
2022-10-08T05:18:12.060Z,0.85
2022-10-08T05:20:39.566Z,1.10
2022-10-08T05:23:07.129Z,0.85
2022-10-08T05:25:35.343Z,1.63
2022-10-08T05:28:04.294Z,0.90
2022-10-08T05:30:31.871Z,1.10
2022-10-08T05:32:59.353Z,1.70
2022-10-08T05:35:27.014Z,1.23
2022-10-08T05:37:54.554Z,1.13
2022-10-08T05:40:22.151Z,1.05
2022-10-08T05:42:50.138Z,1.08
2022-10-08T05:45:18.027Z,1.02
2022-10-08T05:47:48.311Z,1.20
2022-10-08T05:50:16.502Z,1.10
2022-10-08T05:52:44.218Z,1.10
2022-10-08T05:55:12.077Z,1.20
2022-10-08T05:57:39.570Z,1.15
2022-10-08T06:00:07.716Z,1.33
2022-10-08T06:02:38.849Z,1.08
2022-10-08T06:05:06.798Z,1.35
2022-10-08T06:07:34.333Z,1.10
2022-10-08T06:10:01.853Z,1.08
2022-10-08T06:12:29.312Z,0.85
2022-10-08T06:14:57.212Z,1.00
2022-10-08T06:17:24.649Z,1.00
2022-10-08T06:19:52.117Z,1.30
2022-10-08T06:22:19.551Z,1.38
2022-10-08T06:24:47.074Z,1.40
2022-10-08T06:27:14.582Z,0.80
2022-10-08T06:29:42.237Z,1.27
2022-10-08T06:32:09.747Z,1.00
2022-10-08T06:34:37.219Z,1.13
2022-10-08T06:37:04.717Z,1.15
2022-10-08T06:39:32.332Z,1.20
2022-10-08T06:41:59.837Z,1.70
2022-10-08T06:44:36.903Z,1.20
2022-10-08T06:47:04.429Z,1.00
2022-10-08T06:49:31.959Z,1.13
2022-10-08T06:51:59.489Z,1.00
2022-10-08T06:54:27.558Z,0.90
2022-10-08T06:56:55.805Z,1.23
2022-10-08T06:59:23.325Z,0.88
2022-10-08T07:01:50.955Z,0.90
2022-10-08T07:04:18.422Z,1.10
2022-10-08T07:06:46.952Z,1.33
2022-10-08T07:09:14.551Z,1.10
2022-10-08T07:11:42.116Z,1.17
2022-10-08T07:14:09.709Z,1.05
2022-10-08T07:16:37.208Z,1.50
2022-10-08T07:19:04.824Z,0.77
2022-10-08T07:21:32.325Z,1.17
2022-10-08T07:24:01.932Z,0.75
2022-10-08T07:26:34.418Z,1.20
2022-10-08T07:29:08.379Z,1.30
2022-10-08T07:31:37.513Z,0.90
2022-10-08T07:34:10.945Z,0.77
2022-10-08T07:36:39.837Z,0.85
2022-10-08T07:39:12.648Z,1.38
2022-10-08T07:41:40.610Z,1.08
2022-10-08T07:44:10.440Z,1.48
2022-10-08T07:46:42.656Z,1.20
2022-10-08T07:49:10.166Z,1.33
2022-10-08T07:51:37.839Z,1.13
2022-10-08T07:54:08.511Z,1.60
2022-10-08T07:56:36.976Z,1.85
2022-10-08T07:59:05.318Z,1.50
2022-10-08T08:01:34.357Z,1.83
2022-10-08T08:04:07.755Z,1.30
2022-10-08T08:06:43.864Z,1.25
2022-10-08T08:11:40.254Z,1.33
2022-10-08T08:14:08.739Z,1.55
2022-10-08T08:16:36.319Z,1.23
2022-10-08T08:19:04.381Z,1.20
2022-10-08T08:21:37.465Z,1.52
2022-10-08T08:24:11.203Z,1.48
2022-10-08T08:26:40.957Z,1.60
2022-10-08T08:29:12.794Z,1.27
2022-10-08T08:31:43.559Z,2.15
2022-10-08T08:34:17.575Z,1.73
2022-10-08T08:36:48.833Z,1.30
2022-10-08T08:39:19.005Z,1.92
2022-10-08T08:41:53.573Z,1.90
2022-10-08T08:44:27.525Z,1.52
2022-10-08T08:47:00.367Z,1.40
2022-10-08T08:49:34.761Z,1.52
2022-10-08T08:52:04.659Z,1.58
2022-10-08T08:54:32.198Z,1.20
2022-10-08T08:57:28.658Z,1.83
2022-10-08T09:00:00.263Z,1.40
2022-10-08T09:02:37.726Z,1.60
2022-10-08T09:05:11.570Z,1.55
2022-10-08T09:07:51.489Z,1.35
2022-10-08T09:10:23.019Z,1.50
2022-10-08T09:12:53.736Z,1.88
2022-10-08T09:15:27.812Z,1.88
2022-10-08T09:17:55.393Z,1.60
2022-10-08T09:20:25.591Z,1.63
2022-10-08T09:22:54.242Z,1.35
2022-10-08T09:25:33.125Z,1.48
2022-10-08T09:28:04.822Z,1.20
2022-10-08T09:30:41.669Z,1.20
2022-10-08T09:33:18.708Z,1.05
2022-10-08T09:35:51.146Z,1.20
2022-10-08T09:38:36.409Z,1.15
2022-10-08T09:41:09.515Z,1.40
2022-10-08T09:43:37.033Z,1.35
2022-10-08T09:46:12.114Z,0.98
2022-10-08T09:48:41.784Z,1.30
2022-10-08T09:51:19.055Z,1.10
2022-10-08T09:53:51.030Z,1.20
2022-10-08T09:56:31.039Z,1.13
2022-10-08T09:59:02.379Z,1.15
2022-10-08T10:01:31.668Z,1.13
2022-10-08T10:04:02.177Z,0.98
2022-10-08T10:06:37.373Z,0.70
2022-10-08T10:09:26.288Z,0.82
2022-10-08T10:12:25.316Z,0.70
2022-10-08T10:15:03.366Z,0.80
2022-10-08T10:17:56.490Z,0.90
2022-10-08T10:20:38.257Z,1.15
2022-10-08T10:23:20.628Z,0.90
2022-10-08T10:25:57.525Z,0.70
2022-10-08T10:28:46.259Z,0.80
2022-10-08T10:31:33.382Z,0.88
2022-10-08T10:34:03.367Z,0.75
2022-10-08T10:36:37.972Z,0.60
2022-10-08T10:39:08.291Z,0.60
2022-10-08T10:41:58.878Z,0.75
2022-10-08T10:44:57.862Z,0.65
2022-10-08T10:47:32.173Z,0.82
2022-10-08T10:50:03.338Z,0.95
2022-10-08T10:52:49.618Z,0.90
2022-10-08T10:58:44.539Z,0.70
2022-10-08T11:01:12.374Z,0.93
2022-10-08T11:04:17.588Z,0.98
2022-10-08T11:06:55.280Z,0.70
2022-10-08T11:09:33.162Z,1.08
2022-10-08T11:12:06.903Z,0.57
2022-10-08T11:14:57.996Z,0.52
2022-10-08T11:17:25.521Z,1.02
2022-10-08T11:20:01.628Z,0.85
2022-10-08T11:22:42.675Z,0.50
2022-10-08T11:26:02.719Z,0.50
2022-10-08T11:28:55.941Z,0.40
2022-10-08T11:31:43.363Z,0.63
2022-10-08T11:34:29.444Z,0.60
2022-10-08T11:37:02.754Z,0.85
2022-10-08T11:39:49.439Z,0.70
2022-10-08T11:42:29.628Z,0.85
2022-10-08T11:45:23.101Z,0.73
2022-10-08T11:47:56.097Z,3.15
2022-10-08T11:50:36.719Z,1.13
2022-10-08T11:53:10.052Z,1.00
2022-10-08T11:55:38.559Z,0.90
2022-10-08T11:58:21.031Z,0.70
2022-10-08T12:00:50.307Z,0.70
2022-10-08T12:03:27.267Z,1.02
2022-10-08T12:06:01.250Z,0.60
2022-10-08T12:08:59.182Z,0.70
2022-10-08T12:11:32.681Z,0.90
2022-10-08T12:14:14.603Z,0.82
2022-10-08T12:16:50.797Z,0.77
2022-10-08T12:19:33.802Z,0.80
2022-10-08T12:22:25.016Z,0.80
2022-10-08T12:24:59.664Z,0.98
2022-10-08T12:27:28.714Z,0.70
2022-10-08T12:30:06.926Z,0.70
2022-10-08T12:32:40.193Z,0.90
2022-10-08T12:35:34.591Z,0.82
2022-10-08T12:38:26.735Z,0.70
2022-10-08T12:41:10.258Z,0.70
2022-10-08T12:43:48.231Z,0.55
2022-10-08T12:46:50.260Z,1.30
2022-10-08T12:49:22.253Z,0.98
2022-10-08T12:51:59.559Z,0.60
2022-10-08T12:54:29.699Z,0.60
2022-10-08T12:56:57.955Z,0.70
2022-10-08T12:59:31.628Z,0.85
2022-10-08T13:01:59.441Z,0.80
2022-10-08T13:04:32.328Z,0.73
2022-10-08T13:07:00.057Z,0.65
2022-10-08T13:09:34.696Z,0.45
2022-10-08T13:12:05.169Z,0.70
2022-10-08T13:14:35.391Z,0.60
2022-10-08T13:17:03.359Z,1.13
2022-10-08T13:19:37.402Z,0.63
2022-10-08T13:22:23.816Z,0.90
2022-10-08T13:24:51.696Z,0.70
2022-10-08T13:28:09.398Z,0.68
2022-10-08T13:30:37.132Z,4.47
2022-10-08T13:33:11.091Z,2.13
2022-10-08T13:35:40.698Z,1.00
2022-10-08T13:38:17.774Z,1.00
2022-10-08T13:40:58.786Z,0.60
2022-10-08T13:43:26.673Z,0.80
2022-10-08T13:45:54.200Z,0.63
2022-10-08T13:48:22.184Z,0.60
2022-10-08T13:50:51.702Z,0.60
2022-10-08T13:53:24.697Z,0.68
2022-10-08T13:55:55.362Z,0.70
2022-10-08T13:58:23.120Z,0.50
2022-10-08T14:00:50.761Z,0.50
2022-10-08T14:03:18.780Z,0.40
2022-10-08T14:05:48.340Z,0.60
2022-10-08T14:08:21.619Z,0.50
2022-10-08T14:10:50.104Z,0.35
2022-10-08T14:13:17.984Z,0.35
2022-10-08T14:15:45.512Z,0.52
2022-10-08T14:18:13.128Z,0.60
2022-10-08T14:20:40.944Z,0.55
2022-10-08T14:23:12.283Z,0.43
2022-10-08T14:25:39.864Z,0.70
2022-10-08T14:28:07.726Z,0.40
2022-10-08T14:30:35.191Z,0.40
2022-10-08T14:33:03.491Z,0.40
2022-10-08T14:35:32.366Z,0.50
2022-10-08T14:37:59.897Z,0.40
2022-10-08T14:40:27.403Z,0.60
2022-10-08T14:42:54.975Z,0.43
2022-10-08T14:45:23.150Z,0.50
2022-10-08T14:47:50.992Z,0.63
2022-10-08T14:50:18.545Z,0.47
2022-10-08T14:52:46.319Z,0.57
2022-10-08T14:55:14.770Z,0.40
2022-10-08T14:57:42.280Z,0.57
2022-10-08T15:00:10.738Z,0.47
2022-10-08T15:02:38.296Z,0.65
2022-10-08T15:05:07.759Z,0.50
2022-10-08T15:07:35.382Z,0.60
2022-10-08T15:10:03.043Z,0.70
2022-10-08T15:12:30.552Z,0.73
2022-10-08T15:15:00.664Z,0.70
2022-10-08T15:17:28.190Z,0.70
2022-10-08T15:19:56.524Z,0.43
2022-10-08T15:22:24.048Z,0.82
2022-10-08T15:24:51.476Z,0.68
2022-10-08T15:27:20.947Z,0.90
2022-10-08T15:29:48.697Z,0.65
2022-10-08T15:32:16.223Z,0.47
2022-10-08T15:34:43.626Z,0.80
2022-10-08T15:37:11.093Z,0.88
2022-10-08T15:39:38.658Z,0.60
2022-10-08T15:42:06.454Z,0.50
2022-10-08T15:44:34.306Z,0.73
2022-10-08T15:47:07.228Z,0.90
2022-10-08T15:49:35.996Z,0.90
2022-10-08T15:52:05.531Z,0.60
2022-10-08T15:54:37.089Z,1.00
2022-10-08T15:57:05.462Z,0.60
2022-10-08T15:59:33.433Z,1.08
2022-10-08T16:02:01.344Z,1.33
2022-10-08T16:04:28.958Z,0.95
2022-10-08T16:06:56.522Z,1.20
2022-10-08T16:09:24.589Z,1.20
2022-10-08T16:11:52.440Z,1.05
2022-10-08T16:14:22.488Z,1.02
2022-10-08T16:16:50.784Z,1.08
2022-10-08T16:19:24.332Z,1.10
2022-10-08T16:21:54.420Z,1.40
2022-10-08T16:24:22.234Z,0.98
2022-10-08T16:26:49.885Z,0.90
2022-10-08T16:29:18.702Z,1.02
2022-10-08T16:31:46.924Z,1.02
2022-10-08T16:34:19.841Z,1.20
2022-10-08T16:36:51.121Z,1.20
2022-10-08T16:39:21.090Z,1.00
2022-10-08T16:41:49.601Z,1.13
2022-10-08T16:44:19.906Z,1.08
2022-10-08T16:46:50.751Z,1.10
2022-10-08T16:49:25.330Z,1.40
2022-10-08T16:52:02.370Z,1.40
2022-10-08T16:54:30.346Z,1.08
2022-10-08T16:56:58.395Z,1.20
2022-10-08T16:59:27.564Z,1.70
2022-10-08T17:01:57.470Z,1.77
2022-10-08T17:04:27.823Z,1.70
2022-10-08T17:06:55.838Z,1.52
2022-10-08T17:09:23.598Z,1.70
2022-10-08T17:11:51.837Z,1.60
2022-10-08T17:14:19.440Z,1.58
2022-10-08T17:16:49.276Z,1.48
2022-10-08T17:19:17.167Z,1.42
2022-10-08T17:21:44.664Z,1.63
2022-10-08T17:24:12.815Z,1.88
2022-10-08T17:26:42.021Z,1.77
2022-10-08T17:29:12.617Z,1.75
2022-10-08T17:31:40.201Z,1.60
2022-10-08T17:34:08.345Z,1.60
2022-10-08T17:36:38.511Z,2.15
2022-10-08T17:39:09.131Z,1.98
2022-10-08T17:41:39.417Z,2.08
2022-10-08T17:44:09.898Z,1.85
2022-10-08T17:46:46.185Z,2.13
2022-10-08T17:49:15.873Z,2.17
2022-10-08T17:51:43.831Z,1.85
2022-10-08T17:54:13.709Z,2.03
2022-10-08T17:56:41.984Z,2.22
2022-10-08T17:59:13.804Z,2.55
2022-10-08T18:01:44.757Z,2.67
2022-10-08T18:04:15.743Z,2.70
2022-10-08T18:06:46.401Z,3.13
2022-10-08T18:09:19.916Z,2.63
2022-10-08T18:11:51.068Z,2.70
2022-10-08T18:14:19.261Z,2.90
2022-10-08T18:16:48.445Z,3.08
2022-10-08T18:19:17.160Z,3.45
2022-10-08T18:21:44.911Z,3.85
2022-10-08T18:24:12.505Z,3.30
2022-10-08T18:26:40.163Z,2.75
2022-10-08T18:29:10.193Z,2.22
2022-10-08T18:31:39.843Z,2.22
2022-10-08T18:34:11.703Z,2.00
2022-10-08T18:36:39.576Z,2.20
2022-10-08T18:39:10.236Z,2.20
2022-10-08T18:41:41.550Z,2.40
2022-10-08T18:44:13.629Z,2.72
2022-10-08T18:46:44.584Z,3.10
2022-10-08T18:49:18.146Z,2.50
2022-10-08T18:51:48.532Z,2.80
2022-10-08T18:54:16.028Z,2.60
2022-10-08T18:56:43.513Z,2.25
2022-10-08T18:59:16.179Z,2.33
2022-10-08T19:01:46.647Z,2.15
2022-10-08T19:04:17.229Z,1.58
2022-10-08T19:06:46.796Z,2.25
2022-10-08T19:09:15.254Z,2.10
2022-10-08T19:11:45.542Z,1.92
2022-10-08T19:14:17.203Z,2.00
2022-10-08T19:16:45.124Z,1.67
2022-10-08T19:19:21.446Z,1.75
2022-10-08T19:21:49.778Z,1.70
2022-10-08T19:24:20.848Z,1.42
2022-10-08T19:26:48.966Z,2.17
2022-10-08T19:29:25.388Z,2.60
2022-10-08T19:31:53.107Z,1.67
2022-10-08T19:34:23.449Z,1.88
2022-10-08T19:36:51.650Z,2.50
2022-10-08T19:39:25.278Z,1.70
2022-10-08T19:41:53.214Z,2.38
2022-10-08T19:44:21.109Z,2.22
2022-10-08T19:46:49.317Z,2.28
2022-10-08T19:49:17.503Z,2.50
2022-10-08T19:51:45.141Z,2.00
2022-10-08T19:54:13.367Z,2.35
2022-10-08T19:56:41.309Z,2.42
2022-10-08T19:59:10.423Z,1.92
2022-10-08T20:01:39.290Z,2.67
2022-10-08T20:04:09.132Z,2.60
2022-10-08T20:06:39.468Z,2.60
2022-10-08T20:09:12.047Z,2.88
2022-10-08T20:11:41.132Z,2.15
2022-10-08T20:14:09.143Z,1.85
2022-10-08T20:16:39.880Z,1.48
2022-10-08T20:19:14.180Z,1.60
2022-10-08T20:21:41.743Z,1.65
2022-10-08T20:24:10.081Z,1.30
2022-10-08T20:26:40.255Z,1.25
2022-10-08T20:29:13.532Z,1.58
2022-10-08T20:31:47.467Z,1.67
2022-10-08T20:34:17.935Z,1.50
2022-10-08T20:36:46.400Z,1.40
2022-10-08T20:39:15.914Z,1.50
2022-10-08T20:41:44.249Z,1.23
2022-10-08T20:44:11.805Z,1.70
2022-10-08T20:46:39.970Z,1.15
2022-10-08T20:49:07.822Z,1.63
2022-10-08T20:51:37.852Z,2.00
2022-10-08T20:54:07.558Z,1.40
2022-10-08T20:56:39.893Z,1.35
2022-10-08T20:59:15.685Z,1.63
2022-10-08T21:01:43.772Z,1.35
2022-10-08T21:04:11.428Z,1.88
2022-10-08T21:06:44.653Z,1.52
2022-10-08T21:09:13.662Z,1.25
2022-10-08T21:11:42.595Z,2.13
2022-10-08T21:14:19.279Z,1.40
2022-10-08T21:16:46.913Z,2.00
2022-10-08T21:19:21.598Z,1.75
2022-10-08T21:21:49.159Z,1.88
2022-10-08T21:24:16.916Z,2.10
2022-10-08T21:26:44.539Z,2.10
2022-10-08T21:29:14.471Z,1.73
2022-10-08T21:31:43.136Z,2.35
2022-10-08T21:34:12.476Z,2.03
2022-10-08T21:36:41.160Z,1.77
2022-10-08T21:39:13.419Z,1.70
2022-10-08T21:41:40.916Z,1.55
2022-10-08T21:44:09.212Z,1.60
2022-10-08T21:46:41.021Z,1.45
2022-10-08T21:49:12.780Z,1.45
2022-10-08T21:51:40.787Z,1.35
2022-10-08T21:54:08.761Z,1.73
2022-10-08T21:56:38.350Z,1.85
2022-10-08T21:59:08.395Z,1.92
2022-10-08T22:01:41.864Z,2.22
2022-10-08T22:04:10.694Z,2.22
2022-10-08T22:06:41.521Z,1.80
2022-10-08T22:09:12.456Z,1.45
2022-10-08T22:11:40.179Z,1.30
2022-10-08T22:14:08.184Z,1.35
2022-10-08T22:16:36.196Z,1.33
2022-10-08T22:19:04.532Z,1.35
2022-10-08T22:21:32.791Z,1.63
2022-10-08T22:24:00.495Z,1.48
2022-10-08T22:26:33.768Z,1.65
2022-10-08T22:29:01.524Z,1.20
2022-10-08T22:31:29.405Z,2.00
2022-10-08T22:33:57.171Z,1.55
2022-10-08T22:36:27.275Z,1.60
2022-10-08T22:38:56.011Z,1.63
2022-10-08T22:41:29.368Z,1.73
2022-10-08T22:43:57.325Z,1.50
2022-10-08T22:46:27.685Z,1.60
2022-10-08T22:49:00.484Z,1.40
2022-10-08T22:51:29.276Z,1.85
2022-10-08T22:53:57.519Z,1.35
2022-10-08T22:56:29.562Z,1.55
2022-10-08T22:58:58.968Z,1.50
2022-10-08T23:01:27.807Z,1.60
2022-10-08T23:03:55.358Z,1.30
2022-10-08T23:06:27.785Z,1.55
2022-10-08T23:09:01.909Z,1.50
2022-10-08T23:11:30.248Z,1.38
2022-10-08T23:13:58.877Z,1.48
2022-10-08T23:16:28.277Z,1.92
2022-10-08T23:18:58.426Z,1.40
2022-10-08T23:21:26.709Z,1.30
2022-10-08T23:23:54.901Z,1.40
2022-10-08T23:26:25.815Z,1.20
2022-10-08T23:28:56.228Z,1.83
2022-10-08T23:31:30.586Z,2.20
2022-10-08T23:33:58.878Z,1.50
2022-10-08T23:36:31.519Z,1.65
2022-10-08T23:38:59.528Z,1.55
2022-10-08T23:41:27.895Z,1.30
2022-10-08T23:43:56.800Z,1.20
2022-10-08T23:46:26.615Z,1.75
2022-10-08T23:48:54.549Z,1.50
2022-10-08T23:51:23.729Z,1.45
2022-10-08T23:53:52.339Z,1.52
2022-10-08T23:56:20.300Z,1.67
2022-10-08T23:58:48.383Z,1.30
